全部
Barimunya Airport (Barimunya, Western Australia) BYP 天气
|
Barimunya, Western Australia (BYP / YBRY)
晴天
微风 |
|
22 °C |
BYP终端机场天气预报
| Date | Time (AWST) | Flight Rules | Wind Dir. | Speed | Type | Height AGL (ft) | Visibility | Remarks | ||||||
|---|---|---|---|---|---|---|---|---|---|---|---|---|---|---|
BYP近期METAR历史数据
| Date | Time (AWST) | Flight Rules | Wind Dir. | Speed | Type | Height AGL (ft) | Visibility | Temp (°C) | Temp (°F) | Dew Point (°C) | Dew Point (°F) | Rel. Humid. | Pressure | Density Altitude | Remarks |
|---|---|---|---|---|---|---|---|---|---|---|---|---|---|---|---|
| 05-五月 | 18:00 | VFR | 110° | 7 kt | 10000 meters | 22° | 71° | 0° | 32° | 23% | 1020 mb | 3,117 ft | |||
| 05-五月 | 17:00 | VFR | 130° | 10 kt | 10000 meters | 23° | 73° | -1° | 30° | 20% | 1019 mb | 3,266 ft | |||
| 05-五月 | 16:00 | VFR | 100° | 9 kt | 10000 meters | 23° | 73° | -2° | 28° | 19% | 1019 mb | 3,266 ft | |||
| 05-五月 | 15:00 | VFR | 130° | 9 kt | 10000 meters | 24° | 75° | 0° | 32° | 20% | 1019 mb | 3,386 ft | |||
| 05-五月 | 14:00 | VFR | 120° | 10 kt | 10000 meters | 23° | 73° | 0° | 32° | 22% | 1019 mb | 3,266 ft | |||
| 05-五月 | 13:00 | VFR | 160° | 6 kt | 10000 meters | 22° | 71° | 0° | 32° | 23% | 1020 mb | 3,117 ft | |||
| 05-五月 | 12:00 | VFR | 130° | 11 kt | 10000 meters | 22° | 71° | 0° | 32° | 23% | 1021 mb | 3,087 ft | |||
| 05-五月 | 11:00 | VFR | 120° | 13 kt | 10000 meters | 21° | 69° | 1° | 33° | 26% | 1021 mb | 2,967 ft | |||
| gap in available data | |||||||||||||||
| 05-五月 | 09:00 | VFR | 100° | 13 kt | 10000 meters | 18° | 64° | 2° | 35° | 34% | 1023 mb | 2,548 ft | |||
| 05-五月 | 08:00 | VFR | 120° | 18 kt | 10000 meters | 17° | 62° | 2° | 35° | 36% | 1022 mb | 2,458 ft | |||
| 05-五月 | 07:00 | VFR | 120° | 12 kt | 10000 meters | 15° | 59° | 2° | 35° | 41% | 1022 mb | 2,218 ft | |||
| 05-五月 | 06:00 | VFR | 130° | 8 kt | 10000 meters | 15° | 59° | 2° | 35° | 41% | 1022 mb | 2,218 ft | |||
| 05-五月 | 05:00 | VFR | 130° | 8 kt | 10000 meters | 15° | 59° | 1° | 33° | 39% | 1021 mb | 2,247 ft | |||
| 05-五月 | 04:00 | VFR | 130° | 10 kt | 10000 meters | 15° | 59° | 0° | 32° | 36% | 1021 mb | 2,247 ft | |||
| 05-五月 | 03:00 | VFR | 120° | 11 kt | 10000 meters | 16° | 60° | 0° | 32° | 34% | 1021 mb | 2,367 ft | |||
| 05-五月 | 02:00 | VFR | 130° | 12 kt | 10000 meters | 17° | 62° | 0° | 32° | 32% | 1021 mb | 2,487 ft | |||
| 05-五月 | 01:00 | VFR | 110° | 11 kt | 10000 meters | 18° | 64° | -1° | 30° | 28% | 1021 mb | 2,607 ft | |||
| 05-五月 | 00:00 | VFR | 130° | 10 kt | 10000 meters | 18° | 64° | -2° | 28° | 26% | 1021 mb | 2,607 ft | |||
| 04-五月 | 23:00 | VFR | 120° | 12 kt | 10000 meters | 19° | 66° | -2° | 28° | 24% | 1021 mb | 2,727 ft | |||
| 04-五月 | 22:00 | VFR | 120° | 11 kt | 10000 meters | 20° | 68° | -2° | 28° | 23% | 1021 mb | 2,847 ft | |||
| 04-五月 | 21:00 | VFR | 120° | 10 kt | 10000 meters | 21° | 69° | 0° | 32° | 25% | 1022 mb | 2,938 ft | |||
| 04-五月 | 20:00 | VFR | 120° | 12 kt | 10000 meters | 22° | 71° | 0° | 32° | 23% | 1021 mb | 3,087 ft | |||
| 04-五月 | 19:00 | VFR | 130° | 8 kt | 10000 meters | 22° | 71° | 1° | 33° | 25% | 1021 mb | 3,087 ft | |||
| 04-五月 | 18:00 | VFR | 120° | 11 kt | 10000 meters | 23° | 73° | 1° | 33° | 23% | 1020 mb | 3,237 ft | |||
登录
| 您的浏览器不支持. 升级您的浏览器 |
